Time;durP1;ratioP1;P1;durP2;ratioP2;P2;SDS_P1;SDS_P2;PMS_P1;PMS_P2;Temp;Humidity;BMP_temperature;BMP_pressure;BME280_temperature;BME280_humidity;BME280_pressure;Samples;Min_cycle;Max_cycle;Signal;HPM_P1;HPM_P2
2024/01/28 00:00:14;;;;;;;3.42;2.17;;;;;;;4.14;100.00;102567.75;5050538;28;20035;-73
2024/01/28 00:02:40;;;;;;;5.95;2.45;;;;;;;4.46;100.00;102647.91;5052918;28;20115;-73
2024/01/28 00:05:06;;;;;;;6.50;4.22;;;;;;;4.43;100.00;102547.06;5048571;28;20037;-73
2024/01/28 00:07:31;;;;;;;4.32;3.20;;;;;;;4.55;100.00;102622.22;5050346;28;20032;-73
2024/01/28 00:09:56;;;;;;;28.45;19.30;;;;;;;4.25;100.00;102579.94;5053412;28;20083;-72
2024/01/28 00:12:22;;;;;;;9.55;6.53;;;;;;;3.33;100.00;102503.16;5050636;28;20131;-74
2024/01/28 00:14:47;;;;;;;8.90;5.63;;;;;;;3.62;100.00;102522.00;5048319;28;20079;-74
2024/01/28 00:17:13;;;;;;;26.95;18.50;;;;;;;4.07;100.00;102652.19;5049567;28;20049;-74
2024/01/28 00:19:38;;;;;;;17.63;11.65;;;;;;;4.22;100.00;102586.50;5052600;28;20043;-74
2024/01/28 00:22:05;;;;;;;13.75;9.35;;;;;;;3.41;100.00;102504.34;5051953;28;20029;-73
2024/01/28 00:24:30;;;;;;;10.93;8.15;;;;;;;4.43;100.00;102647.78;5053121;28;20127;-72
2024/01/28 00:26:56;;;;;;;11.82;8.40;;;;;;;4.02;100.00;102672.94;5053282;28;20092;-72
2024/01/28 00:29:29;;;;;;;6.97;5.00;;;;;;;3.62;100.00;102599.09;5053127;28;20027;-73
2024/01/28 00:31:59;;;;;;;6.65;4.63;;;;;;;3.56;100.00;102623.97;5052510;28;20112;-72
2024/01/28 00:34:25;;;;;;;6.78;3.90;;;;;;;3.44;100.00;102660.38;5048636;28;20078;-73
2024/01/28 00:36:50;;;;;;;6.18;3.38;;;;;;;4.06;100.00;102821.59;5053936;28;20037;-72
2024/01/28 00:39:16;;;;;;;4.75;3.08;;;;;;;3.46;100.00;102686.44;5050477;28;20036;-72
2024/01/28 00:41:41;;;;;;;3.95;2.50;;;;;;;3.35;100.00;102710.22;5051024;28;20037;-71
2024/01/28 00:44:07;;;;;;;3.08;2.20;;;;;;;4.23;100.00;102820.72;5064537;28;20043;-75
2024/01/28 00:46:32;;;;;;;4.15;2.55;;;;;;;4.33;100.00;102786.72;5057089;28;20040;-75
2024/01/28 00:48:58;;;;;;;4.57;2.10;;;;;;;4.45;100.00;102739.38;5052381;28;20032;-75
2024/01/28 00:51:24;;;;;;;3.55;2.00;;;;;;;4.39;100.00;102779.41;5050125;28;20066;-74
2024/01/28 00:53:50;;;;;;;3.45;2.33;;;;;;;3.65;100.00;102664.59;5048437;28;20041;-73
2024/01/28 00:56:17;;;;;;;5.70;2.25;;;;;;;4.43;100.00;102730.03;5047490;28;20028;-73
2024/01/28 00:58:46;;;;;;;4.25;2.20;;;;;;;3.41;100.00;102537.03;5053255;28;20032;-74
2024/01/28 01:01:12;;;;;;;3.65;1.80;;;;;;;4.43;100.00;102733.41;5053406;28;20037;-75
2024/01/28 01:03:38;;;;;;;3.58;2.25;;;;;;;3.38;100.00;102631.59;5054381;28;20095;-73
2024/01/28 01:06:06;;;;;;;3.63;2.38;;;;;;;3.40;100.00;102625.84;5050493;28;20056;-72
2024/01/28 01:08:32;;;;;;;6.53;2.45;;;;;;;3.51;100.00;102623.75;5052827;28;20032;-72
2024/01/28 01:10:58;;;;;;;3.80;2.47;;;;;;;3.89;100.00;102762.13;5054384;28;20108;-72
2024/01/28 01:13:24;;;;;;;3.38;2.53;;;;;;;2.68;100.00;102602.41;5052936;28;20066;-71
2024/01/28 01:15:49;;;;;;;3.80;2.65;;;;;;;3.02;100.00;102700.28;5057790;28;20033;-78
2024/01/28 01:18:15;;;;;;;7.18;4.10;;;;;;;3.33;100.00;102746.13;5055560;28;20045;-72
2024/01/28 01:20:41;;;;;;;6.00;3.92;;;;;;;4.00;100.00;102866.63;5064963;28;20036;-74
2024/01/28 01:23:06;;;;;;;11.30;7.22;;;;;;;3.56;100.00;102805.91;5066539;28;20029;-77
2024/01/28 01:25:31;;;;;;;14.48;10.10;;;;;;;3.28;100.00;102786.16;5064329;28;20402;-72
2024/01/28 01:27:57;;;;;;;10.75;8.20;;;;;;;3.03;100.00;102843.56;5056037;28;20423;-72
2024/01/28 01:30:23;;;;;;;9.48;6.20;;;;;;;3.52;100.00;102964.97;5058675;28;20546;-78
2024/01/28 01:32:50;;;;;;;8.25;5.82;;;;;;;3.66;100.00;102958.09;5057831;28;20036;-73
2024/01/28 01:35:16;;;;;;;7.63;5.20;;;;;;;3.48;100.00;103089.72;5054898;28;20131;-73
2024/01/28 01:37:41;;;;;;;6.95;5.10;;;;;;;3.69;100.00;103069.78;5053053;28;20120;-77
2024/01/28 01:40:07;;;;;;;7.60;5.10;;;;;;;3.53;100.00;103032.06;5055020;28;20108;-72
2024/01/28 01:42:33;;;;;;;6.53;4.75;;;;;;;3.37;100.00;103010.34;5052607;28;20032;-72
2024/01/28 01:44:59;;;;;;;4.90;4.10;;;;;;;3.27;100.00;102989.66;5057022;28;20032;-79
2024/01/28 01:47:28;;;;;;;5.07;4.05;;;;;;;3.02;100.00;102994.25;5053472;28;20028;-73
2024/01/28 01:49:54;;;;;;;8.68;4.25;;;;;;;2.72;100.00;103018.66;5053216;28;20078;-74
2024/01/28 01:52:21;;;;;;;4.13;3.00;;;;;;;3.81;100.00;103171.03;5054545;28;20082;-72
2024/01/28 01:54:47;;;;;;;5.22;3.42;;;;;;;3.05;100.00;103052.22;5054202;28;20036;-73
2024/01/28 01:57:13;;;;;;;4.72;3.30;;;;;;;3.93;100.00;103107.88;5054222;28;20139;-72
2024/01/28 01:59:40;;;;;;;5.40;4.05;;;;;;;3.77;100.00;103175.81;5054211;28;20124;-74
2024/01/28 02:02:08;;;;;;;4.85;3.83;;;;;;;3.11;100.00;103057.56;5053146;28;20043;-73
2024/01/28 02:04:37;;;;;;;4.68;3.78;;;;;;;3.34;100.00;103093.16;5053833;28;20040;-72
2024/01/28 02:07:02;;;;;;;5.43;3.90;;;;;;;3.41;100.00;103135.41;5052487;28;20557;-72
2024/01/28 02:09:28;;;;;;;5.53;3.90;;;;;;;3.69;100.00;103177.06;5054115;28;20025;-76
2024/01/28 02:11:54;;;;;;;5.20;3.97;;;;;;;3.72;100.00;103192.34;5053689;28;20067;-74
2024/01/28 02:14:24;;;;;;;5.57;4.00;;;;;;;3.64;100.00;103218.75;5052333;28;20033;-72
2024/01/28 02:16:50;;;;;;;5.30;4.13;;;;;;;3.18;100.00;103112.38;5057086;28;20025;-77
2024/01/28 02:19:16;;;;;;;6.60;3.90;;;;;;;3.38;100.00;103109.25;5054638;28;20033;-73
2024/01/28 02:21:42;;;;;;;10.43;7.40;;;;;;;3.10;100.00;103078.44;5049377;28;20060;-72
2024/01/28 02:24:07;;;;;;;22.10;16.60;;;;;;;3.74;100.00;103257.06;5054748;28;20060;-72
2024/01/28 02:26:33;;;;;;;15.68;12.60;;;;;;;3.58;100.00;103190.75;5053698;28;20025;-72
2024/01/28 02:28:58;;;;;;;27.73;21.23;;;;;;;2.82;100.00;103118.81;5051991;28;20558;-73
2024/01/28 02:31:24;;;;;;;30.58;21.30;;;;;;;2.55;100.00;103037.84;5052969;28;20096;-73
2024/01/28 02:33:49;;;;;;;47.33;29.05;;;;;;;2.67;100.00;103131.41;5052651;28;20597;-74
2024/01/28 02:36:15;;;;;;;33.22;21.58;;;;;;;2.94;100.00;103289.47;5051763;28;20411;-72
2024/01/28 02:38:40;;;;;;;27.00;18.05;;;;;;;2.76;100.00;103281.75;5052326;28;20028;-73
2024/01/28 02:41:06;;;;;;;18.55;12.40;;;;;;;2.75;100.00;103295.13;5054651;28;20037;-73
2024/01/28 02:43:31;;;;;;;23.02;15.95;;;;;;;2.87;100.00;103355.25;5054414;28;20032;-78
2024/01/28 02:45:57;;;;;;;23.35;14.20;;;;;;;2.75;100.00;103399.75;5054388;28;20036;-72
2024/01/28 02:48:22;;;;;;;13.27;9.18;;;;;;;3.35;100.00;103486.22;5053341;28;20032;-71
2024/01/28 02:50:48;;;;;;;9.68;7.43;;;;;;;2.49;100.00;103343.84;5052423;28;20040;-72
2024/01/28 02:53:14;;;;;;;12.20;7.40;;;;;;;3.70;100.00;103528.50;5051749;28;20039;-80
2024/01/28 02:55:39;;;;;;;11.85;8.35;;;;;;;3.40;100.00;103603.94;5057280;28;20045;-72
2024/01/28 02:58:05;;;;;;;12.35;8.57;;;;;;;3.29;100.00;103655.22;5050220;28;20048;-73
2024/01/28 03:00:30;;;;;;;12.32;9.23;;;;;;;2.65;100.00;103536.47;5055191;28;20462;-72
2024/01/28 03:02:56;;;;;;;14.00;9.85;;;;;;;2.97;100.00;103649.84;5049585;28;20545;-72
2024/01/28 03:05:21;;;;;;;14.98;9.43;;;;;;;3.49;100.00;103717.66;5052970;28;20032;-73
2024/01/28 03:07:46;;;;;;;15.77;10.88;;;;;;;3.46;100.00;103683.91;5051016;28;20033;-74
2024/01/28 03:10:12;;;;;;;15.38;10.52;;;;;;;3.65;100.00;103801.59;5054810;28;20036;-74
2024/01/28 03:12:37;;;;;;;16.02;11.40;;;;;;;2.89;100.00;103750.66;5053878;28;20029;-72
2024/01/28 03:15:04;;;;;;;20.38;13.40;;;;;;;2.96;100.00;103753.66;5050592;28;20035;-72
2024/01/28 03:17:30;;;;;;;21.42;14.60;;;;;;;3.49;100.00;103920.50;5050491;28;20036;-73
2024/01/28 03:19:55;;;;;;;22.25;15.30;;;;;;;2.49;100.00;103747.22;5057076;28;20037;-73
2024/01/28 03:22:21;;;;;;;26.55;18.40;;;;;;;2.73;100.00;103830.84;5058193;28;20032;-79
2024/01/28 03:24:48;;;;;;;26.45;18.02;;;;;;;3.51;100.00;103972.66;5063916;28;20506;-76
2024/01/28 03:27:14;;;;;;;25.52;16.70;;;;;;;2.69;100.00;103849.88;5052210;28;20052;-73
2024/01/28 03:29:39;;;;;;;21.00;14.10;;;;;;;2.94;100.00;103910.13;5052335;28;20521;-73
2024/01/28 03:32:05;;;;;;;23.85;16.23;;;;;;;3.51;100.00;104037.19;5051783;28;20043;-76
2024/01/28 03:34:30;;;;;;;11.95;8.98;;;;;;;3.58;100.00;104023.38;5055128;28;20102;-73
2024/01/28 03:36:56;;;;;;;8.07;4.70;;;;;;;3.27;100.00;103836.91;5052448;28;20062;-76
2024/01/28 03:39:21;;;;;;;8.85;5.13;;;;;;;3.26;100.00;103798.34;5051869;28;20499;-73
2024/01/28 03:41:47;;;;;;;7.97;4.43;;;;;;;4.18;100.00;103931.66;5053304;28;20031;-74
2024/01/28 03:44:15;;;;;;;6.00;3.20;;;;;;;4.12;100.00;103813.78;5051047;28;20120;-74
2024/01/28 03:46:40;;;;;;;6.40;3.47;;;;;;;3.95;100.00;103620.59;5056710;28;20604;-71
2024/01/28 03:49:06;;;;;;;5.20;3.60;;;;;;;4.30;100.00;103743.47;5052440;28;20122;-72
2024/01/28 03:51:31;;;;;;;8.38;3.72;;;;;;;4.44;100.00;103571.34;5051468;28;20402;-76
2024/01/28 03:53:57;;;;;;;5.97;4.45;;;;;;;4.16;100.00;103444.72;5047430;28;20176;-72
2024/01/28 03:56:24;;;;;;;6.13;3.80;;;;;;;3.43;100.00;103301.47;5050790;28;20029;-73
2024/01/28 03:58:49;;;;;;;9.40;4.93;;;;;;;3.42;100.00;103284.66;5052600;28;20036;-71
2024/01/28 04:01:15;;;;;;;6.78;4.30;;;;;;;4.24;100.00;103362.88;5051200;28;20033;-73
2024/01/28 04:03:40;;;;;;;6.25;3.38;;;;;;;3.73;100.00;103196.56;5052568;28;20032;-73
2024/01/28 04:06:06;;;;;;;4.60;3.33;;;;;;;4.22;100.00;103261.22;5051005;28;20061;-73
2024/01/28 04:08:31;;;;;;;4.97;3.50;;;;;;;3.60;100.00;103035.78;5048394;28;20028;-73
2024/01/28 04:10:56;;;;;;;5.50;3.17;;;;;;;4.02;100.00;103006.00;5052479;28;20436;-72
2024/01/28 04:13:22;;;;;;;6.57;3.53;;;;;;;3.73;100.00;102879.59;5053292;28;20033;-73
2024/01/28 04:15:47;;;;;;;5.10;2.60;;;;;;;4.60;100.00;102888.63;5052293;28;20406;-71
2024/01/28 04:18:13;;;;;;;5.18;2.30;;;;;;;4.74;100.00;102776.69;5050380;28;20036;-72
2024/01/28 04:20:38;;;;;;;4.18;2.70;;;;;;;4.34;100.00;102700.28;5049069;28;20040;-71
2024/01/28 04:23:04;;;;;;;5.20;2.88;;;;;;;3.49;100.00;102492.09;5049175;28;20048;-72
2024/01/28 04:25:29;;;;;;;4.95;2.65;;;;;;;4.76;100.00;102666.75;5053787;28;20163;-73
2024/01/28 04:27:55;;;;;;;5.32;3.17;;;;;;;4.57;100.00;102576.16;5050147;28;20033;-73
2024/01/28 04:30:20;;;;;;;5.05;2.60;;;;;;;4.64;100.00;102537.78;5053050;28;20095;-74
2024/01/28 04:32:46;;;;;;;4.90;3.10;;;;;;;4.52;100.00;102522.22;5053710;28;20029;-73
2024/01/28 04:35:12;;;;;;;7.65;4.78;;;;;;;4.65;100.00;102531.09;5049852;28;20112;-72
2024/01/28 04:37:38;;;;;;;9.98;4.85;;;;;;;4.03;100.00;102370.13;5050158;28;20036;-77
2024/01/28 04:40:04;;;;;;;9.23;6.03;;;;;;;3.93;100.00;102363.91;5054796;28;20032;-73
2024/01/28 04:42:29;;;;;;;7.53;4.57;;;;;;;3.87;100.00;102361.16;5053484;28;20553;-74
2024/01/28 04:44:55;;;;;;;10.18;4.15;;;;;;;4.20;100.00;102429.50;5054147;28;20033;-74
2024/01/28 04:47:21;;;;;;;6.03;3.70;;;;;;;4.08;100.00;102396.34;5054318;28;20059;-75
2024/01/28 04:49:46;;;;;;;6.55;3.05;;;;;;;4.06;100.00;102367.75;5056282;28;20028;-74
2024/01/28 04:52:11;;;;;;;4.53;2.60;;;;;;;4.42;100.00;102419.41;5060821;28;20418;-73
2024/01/28 04:54:37;;;;;;;4.43;2.78;;;;;;;4.33;100.00;102422.47;5053081;28;20159;-73
2024/01/28 04:57:04;;;;;;;7.22;3.03;;;;;;;4.19;100.00;102344.72;5053646;28;20033;-73
2024/01/28 04:59:29;;;;;;;5.95;2.63;;;;;;;4.31;100.00;102365.31;5053067;28;20037;-72
2024/01/28 05:01:55;;;;;;;5.45;2.50;;;;;;;3.93;100.00;102262.41;5055196;28;20498;-73
2024/01/28 05:04:23;;;;;;;4.05;2.58;;;;;;;3.12;100.00;102125.38;5056716;28;20059;-74
2024/01/28 05:06:48;;;;;;;4.53;2.85;;;;;;;3.60;100.00;102183.25;5057355;28;20518;-73
2024/01/28 05:09:16;;;;;;;6.03;3.10;;;;;;;4.32;100.00;102304.94;5054776;28;20123;-73
2024/01/28 05:11:42;;;;;;;8.13;2.92;;;;;;;3.66;100.00;102168.38;5053208;28;20061;-73
2024/01/28 05:14:16;;;;;;;22.90;12.50;;;;;;;4.34;100.00;102287.34;5058476;28;20133;-72
2024/01/28 05:16:47;;;;;;;9.65;4.53;;;;;;;3.80;100.00;102145.44;5055389;28;20037;-71
2024/01/28 05:19:12;;;;;;;18.98;10.52;;;;;;;4.42;100.00;102262.47;5052719;28;20474;-72
2024/01/28 05:21:38;;;;;;;29.65;14.55;;;;;;;3.86;100.00;102149.81;5052279;28;20056;-72
2024/01/28 05:24:05;;;;;;;18.15;11.43;;;;;;;4.44;100.00;102268.41;5055428;28;20037;-71
2024/01/28 05:26:32;;;;;;;10.88;7.20;;;;;;;4.34;100.00;102156.44;5067328;28;20036;-73
2024/01/28 05:29:05;;;;;;;8.65;5.35;;;;;;;4.29;100.00;102216.75;5058457;28;20028;-71
2024/01/28 05:31:31;;;;;;;15.25;9.50;;;;;;;3.84;100.00;102114.53;5053159;28;20037;-71
2024/01/28 05:33:57;;;;;;;15.98;7.13;;;;;;;2.99;100.00;102041.97;5051536;28;20025;-71
2024/01/28 05:36:22;;;;;;;8.93;5.35;;;;;;;3.67;100.00;102124.81;5052630;28;20044;-73
2024/01/28 05:38:48;;;;;;;8.40;4.47;;;;;;;2.92;100.00;102002.34;5054677;28;20497;-73
2024/01/28 05:41:14;;;;;;;9.38;5.88;;;;;;;4.32;100.00;102186.59;5054736;28;20029;-73
2024/01/28 05:43:39;;;;;;;13.52;7.53;;;;;;;4.11;100.00;102222.78;5052744;28;20025;-73
2024/01/28 05:46:05;;;;;;;13.63;8.82;;;;;;;3.58;100.00;102145.47;5054133;28;20028;-75
2024/01/28 05:48:35;;;;;;;13.98;10.35;;;;;;;2.24;100.00;101967.22;5050329;28;20029;-73
2024/01/28 05:51:00;;;;;;;11.25;6.95;;;;;;;4.39;100.00;102236.38;5052980;28;20033;-71
2024/01/28 05:53:26;;;;;;;9.68;6.13;;;;;;;4.18;100.00;102253.25;5052368;28;20420;-72
2024/01/28 05:55:52;;;;;;;7.20;5.00;;;;;;;4.20;100.00;102268.41;5047351;28;20052;-75
2024/01/28 05:58:18;;;;;;;9.85;4.88;;;;;;;3.61;100.00;102086.88;5053621;28;20036;-72
2024/01/28 06:00:44;;;;;;;6.75;4.57;;;;;;;3.81;100.00;102118.59;5057041;28;20036;-75
2024/01/28 06:03:09;;;;;;;8.57;4.82;;;;;;;4.01;100.00;102142.75;5065964;28;20112;-73
2024/01/28 06:05:35;;;;;;;8.18;4.70;;;;;;;4.60;100.00;102228.66;5054044;28;20163;-72
2024/01/28 06:08:00;;;;;;;8.43;5.15;;;;;;;4.11;100.00;102149.81;5051289;28;20806;-73
2024/01/28 06:10:26;;;;;;;11.95;7.20;;;;;;;4.35;100.00;102246.28;5053823;28;20171;-73
2024/01/28 06:12:51;;;;;;;12.77;7.22;;;;;;;4.30;100.00;102299.00;5050061;28;20044;-75
2024/01/28 06:15:17;;;;;;;11.02;6.50;;;;;;;4.59;100.00;102216.88;5048051;28;20473;-74
2024/01/28 06:17:42;;;;;;;15.27;10.30;;;;;;;4.53;100.00;102190.63;5052284;28;20037;-73
2024/01/28 06:20:08;;;;;;;21.13;13.65;;;;;;;4.21;100.00;102222.31;5051639;28;20569;-75
2024/01/28 06:22:34;;;;;;;13.02;7.70;;;;;;;3.80;100.00;102064.06;5052910;28;20458;-74
2024/01/28 06:25:01;;;;;;;7.60;4.60;;;;;;;4.06;100.00;102061.56;5056245;28;20055;-75
2024/01/28 06:27:26;;;;;;;9.88;5.88;;;;;;;3.88;100.00;102010.66;5051118;28;20037;-73
2024/01/28 06:29:52;;;;;;;9.30;6.32;;;;;;;4.86;100.00;102182.47;5053737;28;20114;-76
2024/01/28 06:32:18;;;;;;;10.75;6.40;;;;;;;4.20;100.00;102051.94;5055550;28;20060;-73
2024/01/28 06:34:44;;;;;;;6.78;4.00;;;;;;;4.91;100.00;102107.84;5050305;28;20016;-74
2024/01/28 06:37:09;;;;;;;6.20;3.00;;;;;;;4.17;100.00;101977.22;5051307;28;20028;-74
2024/01/28 06:39:35;;;;;;;6.85;3.03;;;;;;;4.12;100.00;101922.53;5054743;28;20044;-74
2024/01/28 06:42:00;;;;;;;5.32;3.50;;;;;;;4.89;100.00;102046.47;5050310;28;20029;-76
2024/01/28 06:44:26;;;;;;;9.02;3.63;;;;;;;4.25;100.00;101902.78;5053439;28;20112;-73
2024/01/28 06:46:52;;;;;;;7.10;3.88;;;;;;;4.81;100.00;101974.91;5054798;28;20035;-75
2024/01/28 06:49:17;;;;;;;3.58;2.35;;;;;;;4.89;100.00;101954.94;5050424;28;20120;-76
2024/01/28 06:51:43;;;;;;;4.20;2.67;;;;;;;5.04;100.00;101945.25;5051112;28;20039;-82
2024/01/28 06:54:10;;;;;;;4.88;2.70;;;;;;;4.38;100.00;101834.34;5052904;28;20310;-73
2024/01/28 06:56:36;;;;;;;5.85;2.65;;;;;;;3.83;100.00;101722.06;5052370;28;20035;-72
2024/01/28 06:59:01;;;;;;;8.55;3.28;;;;;;;5.12;100.00;101962.28;5051270;28;20033;-72
2024/01/28 07:01:27;;;;;;;6.03;3.47;;;;;;;5.14;100.00;101932.94;5051288;28;20102;-72
2024/01/28 07:03:54;;;;;;;4.38;2.60;;;;;;;4.99;100.00;101916.56;5050558;28;20040;-74
2024/01/28 07:06:19;;;;;;;5.20;3.00;;;;;;;5.27;100.00;101945.03;5052453;28;20039;-74
2024/01/28 07:08:45;;;;;;;6.28;3.50;;;;;;;5.11;100.00;101866.47;5051203;28;20475;-73
2024/01/28 07:11:11;;;;;;;6.95;3.78;;;;;;;5.29;100.00;101948.44;5051239;28;20115;-74
2024/01/28 07:13:36;;;;;;;9.43;4.43;;;;;;;5.23;100.00;101986.09;5051997;28;20051;-74
2024/01/28 07:16:03;;;;;;;4.82;3.17;;;;;;;4.69;100.00;101810.81;5052670;28;20028;-73
2024/01/28 07:18:29;;;;;;;9.02;4.55;;;;;;;4.86;100.00;101789.41;5046987;28;20025;-74
2024/01/28 07:20:54;;;;;;;8.15;4.32;;;;;;;4.70;100.00;101776.38;5051459;28;20118;-73
2024/01/28 07:23:20;;;;;;;8.52;4.65;;;;;;;5.52;100.00;101893.53;5049385;28;20102;-75
2024/01/28 07:25:46;;;;;;;6.70;3.53;;;;;;;5.82;100.00;101785.69;5050613;28;20029;-71
2024/01/28 07:28:11;;;;;;;8.85;5.03;;;;;;;4.87;100.00;101725.59;5059591;28;20499;-74
2024/01/28 07:30:37;;;;;;;10.65;5.40;;;;;;;4.93;100.00;101715.66;5053582;28;20028;-74
2024/01/28 07:33:07;;;;;;;7.13;4.55;;;;;;;5.40;100.00;101773.84;5060045;28;20110;-76
2024/01/28 07:35:33;;;;;;;10.15;4.95;;;;;;;5.41;100.00;101599.88;5050794;28;20068;-77
2024/01/28 07:37:58;;;;;;;9.32;5.30;;;;;;;5.68;100.00;101666.00;5050531;28;20060;-75
2024/01/28 07:40:24;;;;;;;9.43;5.20;;;;;;;5.77;100.00;101708.19;5054695;28;20119;-73
2024/01/28 07:42:49;;;;;;;8.80;4.65;;;;;;;5.59;100.00;101668.34;5053818;28;20028;-74
2024/01/28 07:45:15;;;;;;;9.05;5.13;;;;;;;5.79;100.00;101679.66;5051417;28;20033;-74
2024/01/28 07:47:40;;;;;;;9.15;5.63;;;;;;;5.51;100.00;101536.19;5052878;28;20028;-73
2024/01/28 07:50:06;;;;;;;7.38;3.85;;;;;;;5.96;100.00;101649.72;5051989;28;20090;-75
2024/01/28 07:52:33;;;;;;;8.98;4.60;;;;;;;5.65;100.00;101697.88;5049679;28;20499;-74
2024/01/28 07:54:58;;;;;;;7.38;4.35;;;;;;;5.46;100.00;101584.84;5050414;28;20123;-74
2024/01/28 07:57:24;;;;;;;12.60;6.78;;;;;;;5.83;100.00;101733.56;5051215;28;20120;-74
2024/01/28 07:59:49;;;;;;;9.95;5.80;;;;;;;6.13;100.00;101635.72;5049161;28;20091;-75
2024/01/28 08:02:15;;;;;;;8.23;4.47;;;;;;;6.27;100.00;101679.72;5052094;28;20395;-73
2024/01/28 08:04:44;;;;;;;7.80;4.40;;;;;;;5.58;100.00;101601.06;5045054;28;20506;-73
2024/01/28 08:07:10;;;;;;;4.78;3.10;;;;;;;5.79;100.00;101611.53;5049314;28;20037;-73
2024/01/28 08:09:36;;;;;;;8.13;3.63;;;;;;;6.42;100.00;101589.03;5047674;28;20036;-74
2024/01/28 08:12:03;;;;;;;5.50;2.90;;;;;;;6.34;100.00;101668.06;5049118;28;20044;-73
2024/01/28 08:14:29;;;;;;;9.95;7.20;;;;;;;6.13;100.00;101655.91;5049834;28;20495;-74
2024/01/28 08:16:55;;;;;;;9.00;6.60;;;;;;;6.43;100.00;101636.22;5050912;28;20021;-75
2024/01/28 08:19:21;;;;;;;22.73;15.30;;;;;;;6.52;100.00;101611.06;5056601;28;20025;-74
2024/01/28 08:21:47;;;;;;;17.27;9.98;;;;;;;5.98;100.00;101510.09;5054925;28;20532;-75
2024/01/28 08:24:14;;;;;;;15.20;10.55;;;;;;;6.90;100.00;101654.59;5063639;28;20029;-74
2024/01/28 08:26:40;;;;;;;12.98;9.45;;;;;;;6.40;100.00;101590.69;5057263;28;20036;-75
2024/01/28 08:29:05;;;;;;;7.78;5.40;;;;;;;6.32;100.00;101631.81;5056515;28;20044;-75
2024/01/28 08:31:31;;;;;;;8.25;5.53;;;;;;;6.50;100.00;101607.69;5058048;28;20044;-75
2024/01/28 08:33:56;;;;;;;10.90;5.22;;;;;;;5.93;100.00;101481.44;5059701;28;20111;-74
2024/01/28 08:36:22;;;;;;;7.18;3.08;;;;;;;6.56;100.00;101509.25;5054592;28;20028;-77
2024/01/28 08:38:47;;;;;;;6.85;3.45;;;;;;;5.79;100.00;101487.03;5063223;28;21852;-76
2024/01/28 08:41:13;;;;;;;11.48;6.68;;;;;;;6.63;100.00;101558.19;5066322;28;20035;-76
2024/01/28 08:43:38;;;;;;;10.55;6.65;;;;;;;6.55;100.00;101524.38;5062855;28;20036;-75
2024/01/28 08:46:04;;;;;;;10.50;6.75;;;;;;;6.67;100.00;101471.47;5057279;28;20028;-75
2024/01/28 08:48:30;;;;;;;11.68;7.40;;;;;;;6.48;100.00;101493.13;5059736;28;20501;-76
2024/01/28 08:50:56;;;;;;;9.38;4.70;;;;;;;7.01;100.00;101509.78;5050405;28;20048;-74
2024/01/28 08:53:21;;;;;;;7.35;3.60;;;;;;;6.65;100.00;101551.47;5055051;28;20032;-75
2024/01/28 08:55:47;;;;;;;5.22;3.00;;;;;;;6.46;100.00;101499.84;5053884;28;20076;-76
2024/01/28 08:58:12;;;;;;;7.60;3.05;;;;;;;6.45;100.00;101485.53;5055669;28;20037;-74
2024/01/28 09:00:39;;;;;;;7.88;4.13;;;;;;;5.77;100.00;101397.88;5053823;28;20495;-75
2024/01/28 09:03:05;;;;;;;9.27;4.78;;;;;;;6.22;100.00;101425.44;5057045;28;20040;-74
2024/01/28 09:05:31;;;;;;;6.90;3.90;;;;;;;6.79;100.00;101500.25;5054242;28;20029;-75
2024/01/28 09:07:56;;;;;;;5.00;3.53;;;;;;;6.76;100.00;101506.97;5051172;28;20039;-74
2024/01/28 09:10:25;;;;;;;7.72;4.10;;;;;;;6.53;100.00;101526.91;5054835;28;20170;-76
2024/01/28 09:12:50;;;;;;;6.95;4.50;;;;;;;6.58;100.00;101443.56;5056199;28;20033;-76
2024/01/28 09:15:16;;;;;;;7.15;4.60;;;;;;;6.69;100.00;101442.88;5055178;28;20044;-72
2024/01/28 09:17:41;;;;;;;6.72;3.63;;;;;;;6.63;100.00;101478.19;5053179;28;20033;-72
2024/01/28 09:20:08;;;;;;;8.43;4.22;;;;;;;6.38;100.00;101392.81;5055742;28;20052;-72
2024/01/28 09:22:35;;;;;;;7.00;3.30;;;;;;;6.77;100.00;101481.69;5056693;28;20537;-71
2024/01/28 09:25:04;;;;;;;8.82;4.57;;;;;;;5.96;100.00;101258.53;5053299;28;20029;-75
2024/01/28 09:27:30;;;;;;;8.50;5.38;;;;;;;6.35;100.00;101289.25;5056364;28;20064;-76
2024/01/28 09:29:55;;;;;;;7.03;4.35;;;;;;;6.87;100.00;101401.78;5052839;28;20036;-72
2024/01/28 09:32:23;;;;;;;4.97;2.70;;;;;;;6.91;100.00;101363.06;5057870;28;20078;-72
2024/01/28 09:34:48;;;;;;;5.68;3.13;;;;;;;7.03;100.00;101379.19;5052780;28;20033;-72
2024/01/28 09:37:14;;;;;;;4.40;2.50;;;;;;;7.02;100.00;101374.13;5051104;28;21368;-73
2024/01/28 09:39:40;;;;;;;4.68;3.38;;;;;;;7.10;100.00;101369.13;5054318;28;20040;-73
2024/01/28 09:42:16;;;;;;;9.18;5.80;;;;;;;6.95;100.00;101325.19;5054106;28;20113;-71
2024/01/28 09:44:41;;;;;;;6.13;4.45;;;;;;;6.87;100.00;101356.28;5052584;28;21401;-73
2024/01/28 09:47:08;;;;;;;6.85;4.78;;;;;;;6.57;100.00;101265.91;5053182;28;20029;-73
2024/01/28 09:49:39;;;;;;;7.30;5.50;;;;;;;7.17;100.00;101343.91;5057069;28;20025;-72
2024/01/28 09:52:10;;;;;;;8.25;4.47;;;;;;;6.79;100.00;101320.81;5050073;28;20094;-74
2024/01/28 09:54:41;;;;;;;7.05;3.33;;;;;;;7.23;100.00;101381.88;5051562;28;20041;-76
2024/01/28 09:57:08;;;;;;;4.07;2.40;;;;;;;6.58;100.00;101227.16;5053691;28;20045;-76
2024/01/28 09:59:37;;;;;;;5.65;3.63;;;;;;;7.37;100.00;101312.00;5056190;28;20052;-79
2024/01/28 10:02:04;;;;;;;19.55;12.25;;;;;;;7.35;100.00;101301.03;5044686;28;20104;-74
2024/01/28 10:04:31;;;;;;;9.82;5.53;;;;;;;6.73;100.00;101166.66;5055160;28;20410;-73
2024/01/28 10:07:01;;;;;;;6.47;4.15;;;;;;;7.29;100.00;101247.06;5050916;28;20036;-75
2024/01/28 10:09:29;;;;;;;6.30;4.38;;;;;;;7.06;100.00;101190.44;5044590;28;20060;-72
2024/01/28 10:11:59;;;;;;;10.63;8.43;;;;;;;6.94;100.00;101159.19;5051662;28;20111;-73
2024/01/28 10:14:29;;;;;;;5.85;3.90;;;;;;;7.43;100.00;101263.13;5051456;28;20120;-72
2024/01/28 10:16:57;;;;;;;4.50;3.13;;;;;;;6.39;100.00;101068.75;5051721;28;20474;-73
2024/01/28 10:19:23;;;;;;;11.65;6.10;;;;;;;7.26;100.00;101240.28;5048929;28;20526;-73
2024/01/28 10:21:48;;;;;;;5.78;3.33;;;;;;;6.93;100.00;101123.81;5050929;28;20028;-77
2024/01/28 10:24:16;;;;;;;8.07;3.80;;;;;;;6.89;100.00;101127.97;5052227;28;20068;-77
2024/01/28 10:26:42;;;;;;;6.47;3.47;;;;;;;7.42;100.00;101231.94;5052463;28;20029;-75
2024/01/28 10:29:09;;;;;;;6.53;4.47;;;;;;;6.99;100.00;101142.34;5050345;28;20036;-73
2024/01/28 10:31:37;;;;;;;6.75;3.83;;;;;;;7.35;100.00;101230.22;5048836;28;20048;-75
2024/01/28 10:34:02;;;;;;;6.18;3.70;;;;;;;7.33;100.00;101142.53;5055505;28;20020;-73
2024/01/28 10:36:33;;;;;;;19.70;10.55;;;;;;;7.94;100.00;101134.25;5058168;28;20067;-73
2024/01/28 10:39:03;;;;;;;43.95;16.55;;;;;;;7.13;100.00;101065.75;5050109;28;20044;-69
2024/01/28 10:41:30;;;;;;;51.70;25.88;;;;;;;7.41;100.00;100989.06;5050966;28;20491;-67
2024/01/28 10:44:03;;;;;;;47.83;26.48;;;;;;;7.72;100.00;101119.88;5047208;28;20032;-68
2024/01/28 10:46:36;;;;;;;36.28;18.38;;;;;;;7.99;100.00;101094.59;5052987;28;20033;-69
2024/01/28 10:49:04;;;;;;;20.83;13.50;;;;;;;6.84;100.00;100935.06;5054632;28;20025;-70
2024/01/28 10:51:32;;;;;;;6.68;4.82;;;;;;;7.70;100.00;101000.09;5056741;28;20573;-70
2024/01/28 10:53:59;;;;;;;29.23;14.90;;;;;;;8.68;100.00;100901.91;5054812;28;20127;-70
2024/01/28 10:56:25;;;;;;;13.75;7.18;;;;;;;8.06;100.00;100759.50;5059574;28;21737;-72
2024/01/28 10:58:52;;;;;;;7.82;3.80;;;;;;;8.66;100.00;100806.44;5051802;28;20037;-74
2024/01/28 11:01:18;;;;;;;9.25;4.18;;;;;;;8.23;100.00;100648.81;5050675;28;20068;-71
2024/01/28 11:03:44;;;;;;;32.72;17.23;;;;;;;8.34;100.00;100786.38;5052710;28;20056;-74
2024/01/28 11:06:17;;;;;;;22.20;11.40;;;;;;;8.46;100.00;100755.91;5051224;28;20598;-75
2024/01/28 11:08:42;;;;;;;11.02;5.65;;;;;;;8.63;100.00;100692.44;5049847;28;20124;-75
2024/01/28 11:11:08;;;;;;;4.72;3.20;;;;;;;8.65;100.00;100638.34;4700045;28;10000074;-73
2024/01/28 11:13:34;;;;;;;8.80;5.10;;;;;;;7.99;100.00;100554.47;5051423;28;20476;-74
2024/01/28 11:16:00;;;;;;;6.13;3.00;;;;;;;8.97;100.00;100539.13;5048731;28;20033;-74